createdAt,value
2022-10-29T00:01:00.086Z,60.75
2022-10-29T00:03:27.188Z,60.56
2022-10-29T00:05:54.331Z,60.93
2022-10-29T00:08:21.458Z,60.57
2022-10-29T00:10:48.553Z,61.14
2022-10-29T00:13:15.815Z,60.80
2022-10-29T00:15:42.917Z,60.79
2022-10-29T00:18:10.021Z,60.92
2022-10-29T00:20:37.094Z,60.70
2022-10-29T00:23:04.178Z,60.77
2022-10-29T00:25:31.262Z,60.62
2022-10-29T00:27:58.338Z,60.83
2022-10-29T00:30:25.424Z,60.72
2022-10-29T00:32:52.742Z,60.95
2022-10-29T00:35:19.970Z,60.56
2022-10-29T00:37:47.059Z,60.78
2022-10-29T00:40:14.148Z,61.08
2022-10-29T00:42:41.261Z,60.87
2022-10-29T00:45:08.347Z,60.94
2022-10-29T00:47:35.428Z,60.55
2022-10-29T00:50:02.588Z,60.84
2022-10-29T00:52:29.761Z,60.64
2022-10-29T00:54:56.956Z,61.21
2022-10-29T00:57:24.058Z,61.03
2022-10-29T00:59:51.217Z,60.68
2022-10-29T01:02:18.445Z,60.87
2022-10-29T01:04:45.590Z,61.01
2022-10-29T01:07:12.725Z,61.16
2022-10-29T01:09:39.941Z,61.17
2022-10-29T01:12:07.099Z,61.00
2022-10-29T01:14:34.218Z,61.16
2022-10-29T01:17:01.325Z,61.49
2022-10-29T01:19:28.494Z,61.39
2022-10-29T01:21:55.625Z,61.38
2022-10-29T01:24:22.756Z,61.45
2022-10-29T01:26:49.845Z,61.66
2022-10-29T01:29:16.939Z,61.43
2022-10-29T01:31:44.065Z,61.78
2022-10-29T01:34:11.215Z,61.34
2022-10-29T01:36:38.322Z,61.64
2022-10-29T01:39:05.381Z,61.45
2022-10-29T01:41:32.480Z,61.51
2022-10-29T01:44:00.221Z,61.66
2022-10-29T01:46:27.295Z,61.67
2022-10-29T01:48:54.381Z,61.61
2022-10-29T01:51:21.464Z,61.65
2022-10-29T01:53:48.539Z,61.85
2022-10-29T01:56:15.600Z,61.72
2022-10-29T01:58:42.747Z,61.91
2022-10-29T02:01:09.870Z,61.70
2022-10-29T02:03:37.048Z,61.90
2022-10-29T02:06:04.123Z,62.11
2022-10-29T02:08:31.215Z,61.91
2022-10-29T02:10:58.289Z,61.90
2022-10-29T02:13:25.431Z,61.75
2022-10-29T02:15:52.547Z,61.88
2022-10-29T02:18:19.614Z,62.07
2022-10-29T02:20:46.686Z,62.04
2022-10-29T02:23:13.752Z,62.07
2022-10-29T02:25:40.934Z,61.78
2022-10-29T02:28:08.133Z,61.86
2022-10-29T02:30:35.276Z,61.85
2022-10-29T02:33:02.346Z,62.24
2022-10-29T02:35:29.440Z,61.89
2022-10-29T02:37:56.549Z,62.05
2022-10-29T02:40:23.705Z,61.74
2022-10-29T02:42:50.777Z,62.02
2022-10-29T02:45:17.861Z,61.92
2022-10-29T02:47:44.991Z,61.84
2022-10-29T02:50:12.150Z,62.14
2022-10-29T02:52:39.254Z,61.98
2022-10-29T02:55:06.358Z,61.89
2022-10-29T02:57:33.583Z,62.22
2022-10-29T03:00:00.663Z,62.12
2022-10-29T03:02:27.902Z,62.14
2022-10-29T03:04:55.315Z,62.24
2022-10-29T03:07:22.434Z,62.10
2022-10-29T03:09:49.536Z,62.21
2022-10-29T03:12:16.617Z,62.08
2022-10-29T03:14:43.686Z,61.86
2022-10-29T03:17:10.816Z,62.03
2022-10-29T03:19:37.958Z,62.10
2022-10-29T03:22:05.069Z,61.89
2022-10-29T03:24:32.158Z,62.15
2022-10-29T03:26:59.234Z,62.16
2022-10-29T03:29:26.304Z,62.05
2022-10-29T03:31:53.434Z,62.04
2022-10-29T03:34:20.521Z,61.84
2022-10-29T03:36:47.602Z,62.15
2022-10-29T03:39:14.715Z,61.96
2022-10-29T03:41:41.867Z,62.18
2022-10-29T03:44:08.944Z,62.22
2022-10-29T03:46:36.044Z,62.25
2022-10-29T03:49:03.120Z,62.20
2022-10-29T03:51:30.210Z,62.02
2022-10-29T03:53:57.281Z,62.23
2022-10-29T03:56:24.358Z,62.09
2022-10-29T03:58:51.442Z,61.89
2022-10-29T04:01:18.626Z,62.03
2022-10-29T04:03:45.801Z,62.09
2022-10-29T04:06:12.993Z,61.89
2022-10-29T04:08:40.109Z,62.26
2022-10-29T04:11:08.173Z,62.27
2022-10-29T04:13:35.460Z,62.24
2022-10-29T04:16:02.563Z,62.22
2022-10-29T04:18:29.666Z,61.97
2022-10-29T04:29:18.059Z,61.94
2022-10-29T04:31:45.178Z,62.06
2022-10-29T04:34:12.261Z,61.91
2022-10-29T04:36:39.349Z,62.23
2022-10-29T04:39:06.478Z,62.21
2022-10-29T04:41:33.643Z,61.80
2022-10-29T04:44:00.747Z,61.97
2022-10-29T04:46:27.816Z,61.83
2022-10-29T04:48:54.989Z,62.04
2022-10-29T04:51:22.081Z,62.17
2022-10-29T04:53:49.194Z,61.79
2022-10-29T04:56:16.260Z,62.05
2022-10-29T04:58:43.349Z,62.23
2022-10-29T05:01:10.631Z,62.10
2022-10-29T05:03:37.857Z,62.16
2022-10-29T05:06:05.004Z,62.06
2022-10-29T05:08:32.075Z,62.16
2022-10-29T05:10:59.198Z,62.11
2022-10-29T05:13:26.264Z,61.87
2022-10-29T05:15:53.758Z,61.88
2022-10-29T05:18:20.949Z,62.15
2022-10-29T05:20:48.092Z,62.14
2022-10-29T05:23:15.553Z,62.22
2022-10-29T05:25:42.678Z,62.03
2022-10-29T05:28:09.758Z,61.97
2022-10-29T05:30:37.002Z,61.98
2022-10-29T05:33:04.086Z,61.90
2022-10-29T05:35:31.175Z,61.79
2022-10-29T05:37:58.322Z,62.15
2022-10-29T05:40:25.413Z,61.89
2022-10-29T05:42:52.543Z,62.08
2022-10-29T05:45:19.621Z,61.91
2022-10-29T05:47:46.704Z,61.70
2022-10-29T05:50:14.064Z,61.68
2022-10-29T05:52:41.160Z,61.89
2022-10-29T05:55:08.261Z,61.98
2022-10-29T05:57:35.341Z,61.96
2022-10-29T06:00:02.451Z,61.81
2022-10-29T06:02:29.719Z,61.89
2022-10-29T06:04:56.935Z,61.85
2022-10-29T06:07:24.003Z,62.00
2022-10-29T06:09:51.085Z,62.11
2022-10-29T06:12:18.224Z,62.01
2022-10-29T06:14:45.360Z,61.78
2022-10-29T06:17:12.468Z,62.01
2022-10-29T06:22:07.561Z,62.10
2022-10-29T06:24:34.634Z,62.02
2022-10-29T06:27:01.713Z,61.84
2022-10-29T06:29:28.843Z,61.88
2022-10-29T06:31:55.926Z,61.74
2022-10-29T06:34:23.011Z,61.81
2022-10-29T06:36:50.084Z,62.03
2022-10-29T06:39:17.154Z,62.03
2022-10-29T06:41:44.247Z,62.09
2022-10-29T06:44:11.351Z,61.83
2022-10-29T06:46:39.065Z,62.00
2022-10-29T06:49:06.177Z,62.04
2022-10-29T06:51:33.246Z,61.92
2022-10-29T06:54:00.351Z,61.70
2022-10-29T06:56:27.470Z,61.85
2022-10-29T06:58:54.549Z,62.04
2022-10-29T07:01:21.724Z,61.63
2022-10-29T07:03:49.004Z,61.73
2022-10-29T07:06:16.082Z,61.67
2022-10-29T07:08:43.164Z,61.98
2022-10-29T07:11:10.382Z,61.66
2022-10-29T07:13:37.477Z,61.99
2022-10-29T07:16:04.568Z,61.67
2022-10-29T07:18:32.832Z,61.68
2022-10-29T07:20:59.998Z,61.81
2022-10-29T07:23:27.159Z,61.95
2022-10-29T07:25:54.342Z,61.65
2022-10-29T07:28:23.024Z,61.83
2022-10-29T07:30:50.116Z,61.87
2022-10-29T07:33:17.232Z,61.64
2022-10-29T07:35:44.711Z,61.53
2022-10-29T07:38:11.895Z,61.94
2022-10-29T07:40:41.947Z,61.80
2022-10-29T07:43:10.094Z,61.79
2022-10-29T07:45:37.335Z,61.88
2022-10-29T07:48:04.476Z,61.79
2022-10-29T07:50:31.588Z,61.63
2022-10-29T07:52:58.841Z,61.72
2022-10-29T07:55:26.059Z,61.85
2022-10-29T07:57:53.351Z,61.53
2022-10-29T08:00:20.611Z,61.71
2022-10-29T08:02:47.713Z,61.95
2022-10-29T08:05:14.807Z,61.92
2022-10-29T08:07:41.881Z,61.53
2022-10-29T08:10:08.963Z,61.86
2022-10-29T08:12:36.056Z,61.85
2022-10-29T08:15:03.146Z,61.55
2022-10-29T08:17:30.332Z,61.67
2022-10-29T08:19:57.407Z,61.52
2022-10-29T08:22:24.477Z,61.57
2022-10-29T08:24:52.289Z,61.66
2022-10-29T08:27:19.359Z,61.95
2022-10-29T08:29:46.422Z,61.77
2022-10-29T08:32:13.508Z,61.75
2022-10-29T08:34:40.584Z,61.92
2022-10-29T08:37:07.717Z,61.83
2022-10-29T08:39:34.809Z,61.94
2022-10-29T08:42:01.890Z,61.61
2022-10-29T08:44:32.080Z,61.83
2022-10-29T08:47:01.324Z,61.80
2022-10-29T08:49:30.904Z,61.70
2022-10-29T08:51:58.047Z,61.62
2022-10-29T08:54:30.744Z,61.54
2022-10-29T08:56:58.692Z,61.88
2022-10-29T08:59:25.837Z,61.95
2022-10-29T09:01:53.908Z,61.70
2022-10-29T09:04:21.282Z,61.49
2022-10-29T09:06:48.345Z,61.75
2022-10-29T09:09:15.454Z,61.80
2022-10-29T09:11:42.517Z,61.72
2022-10-29T09:14:09.747Z,61.74
2022-10-29T09:16:37.885Z,61.93
2022-10-29T09:19:05.011Z,61.90
2022-10-29T09:21:32.135Z,61.78
2022-10-29T09:23:59.533Z,61.85
2022-10-29T09:26:26.617Z,61.74
2022-10-29T09:28:53.682Z,61.52
2022-10-29T09:31:20.770Z,61.87
2022-10-29T09:33:47.912Z,61.82
2022-10-29T09:36:15.634Z,61.85
2022-10-29T09:38:42.754Z,61.59
2022-10-29T09:41:09.835Z,61.88
2022-10-29T09:43:36.951Z,61.59
2022-10-29T09:46:04.030Z,61.77
2022-10-29T09:48:31.153Z,61.56
2022-10-29T09:50:58.321Z,61.88
2022-10-29T09:53:25.418Z,61.42
2022-10-29T09:55:53.955Z,61.84
2022-10-29T09:58:21.147Z,61.73
2022-10-29T10:00:48.226Z,61.42
2022-10-29T10:03:15.377Z,61.86
2022-10-29T10:05:42.503Z,61.79
2022-10-29T10:08:09.623Z,61.48
2022-10-29T10:10:36.693Z,61.69
2022-10-29T10:13:03.899Z,61.50
2022-10-29T10:15:31.056Z,61.76
2022-10-29T10:17:58.500Z,61.46
2022-10-29T10:20:25.858Z,61.59
2022-10-29T10:22:53.169Z,61.58
2022-10-29T10:25:20.397Z,61.68
2022-10-29T10:27:47.495Z,61.69
2022-10-29T10:30:15.946Z,61.61
2022-10-29T10:32:43.140Z,61.21
2022-10-29T10:35:10.226Z,61.38
2022-10-29T10:37:37.302Z,61.19
2022-10-29T10:40:04.490Z,61.42
2022-10-29T10:42:32.439Z,61.65
2022-10-29T10:44:59.623Z,61.23
2022-10-29T10:47:26.979Z,61.21
2022-10-29T10:49:54.122Z,61.51
2022-10-29T10:52:21.263Z,61.39
2022-10-29T10:54:48.464Z,61.34
2022-10-29T10:57:17.110Z,61.57
2022-10-29T10:59:44.216Z,61.13
2022-10-29T11:02:11.355Z,61.53
2022-10-29T11:04:38.451Z,61.36
2022-10-29T11:07:05.527Z,61.20
2022-10-29T11:09:32.643Z,61.23
2022-10-29T11:11:59.830Z,61.36
2022-10-29T11:14:26.909Z,61.22
2022-10-29T11:16:53.991Z,61.10
2022-10-29T11:19:21.103Z,61.02
2022-10-29T11:21:48.200Z,61.41
2022-10-29T11:24:15.278Z,60.99
2022-10-29T11:26:42.357Z,61.25
2022-10-29T11:29:09.426Z,61.41
2022-10-29T11:31:36.577Z,61.53
2022-10-29T11:34:03.695Z,60.95
2022-10-29T11:36:30.800Z,61.09
2022-10-29T11:38:58.170Z,61.21
2022-10-29T11:41:25.229Z,61.28
2022-10-29T11:43:52.328Z,60.96
2022-10-29T11:46:19.414Z,60.99
2022-10-29T11:48:46.488Z,61.14
2022-10-29T11:51:13.576Z,60.93
2022-10-29T11:53:40.729Z,61.39
2022-10-29T11:56:07.868Z,61.31
2022-10-29T11:58:38.122Z,61.50
2022-10-29T12:01:07.816Z,61.20
2022-10-29T12:03:34.939Z,61.36
2022-10-29T12:06:02.050Z,61.11
2022-10-29T12:08:29.260Z,61.04
2022-10-29T12:10:56.365Z,61.14
2022-10-29T12:13:23.499Z,61.38
2022-10-29T12:15:50.574Z,61.15
2022-10-29T12:18:17.768Z,61.32
2022-10-29T12:20:44.958Z,61.26
2022-10-29T12:23:15.208Z,61.16
2022-10-29T12:25:42.552Z,61.27
2022-10-29T12:28:09.702Z,61.10
2022-10-29T12:30:36.793Z,61.01
2022-10-29T12:33:03.884Z,61.60
2022-10-29T12:35:31.140Z,61.55
2022-10-29T12:37:58.649Z,61.17
2022-10-29T12:40:26.091Z,61.11
2022-10-29T12:42:53.155Z,61.36
2022-10-29T12:45:20.226Z,61.36
2022-10-29T12:47:47.305Z,61.20
2022-10-29T12:50:14.397Z,61.20
2022-10-29T12:52:41.504Z,61.38
2022-10-29T12:55:08.602Z,61.13
2022-10-29T12:57:35.666Z,61.33
2022-10-29T13:00:02.761Z,61.30
2022-10-29T13:02:30.472Z,61.29
2022-10-29T13:04:57.718Z,61.05
2022-10-29T13:07:24.855Z,61.37
2022-10-29T13:09:51.997Z,61.29
2022-10-29T13:12:19.066Z,61.01
2022-10-29T13:14:46.175Z,61.10
2022-10-29T13:17:13.237Z,61.10
2022-10-29T13:19:40.407Z,61.13
2022-10-29T13:22:08.415Z,60.95
2022-10-29T13:24:35.533Z,61.18
2022-10-29T13:27:02.683Z,61.29
2022-10-29T13:29:29.762Z,60.92
2022-10-29T13:32:02.112Z,60.94
2022-10-29T13:34:31.555Z,60.96
2022-10-29T13:36:58.643Z,60.72
2022-10-29T13:39:25.730Z,61.01
2022-10-29T13:41:52.819Z,61.16
2022-10-29T13:44:19.890Z,60.94
2022-10-29T13:46:47.528Z,60.67
2022-10-29T13:49:14.723Z,60.83
2022-10-29T13:51:41.862Z,60.98
2022-10-29T13:54:09.049Z,60.76
2022-10-29T13:56:36.162Z,60.66
2022-10-29T13:59:03.318Z,61.09
2022-10-29T14:01:30.522Z,60.90
2022-10-29T14:03:57.739Z,61.20
2022-10-29T14:06:24.818Z,61.03
2022-10-29T14:08:51.893Z,60.94
2022-10-29T14:11:18.990Z,61.13
2022-10-29T14:13:46.129Z,61.15
2022-10-29T14:16:13.308Z,61.12
2022-10-29T14:18:40.452Z,61.18
2022-10-29T14:21:07.525Z,61.44
2022-10-29T14:23:34.649Z,61.46
2022-10-29T14:26:03.818Z,61.13
2022-10-29T14:28:31.197Z,61.25
2022-10-29T14:30:58.288Z,61.49
2022-10-29T14:33:25.425Z,61.55
2022-10-29T14:35:52.545Z,61.72
2022-10-29T14:38:19.626Z,61.59
2022-10-29T14:40:46.761Z,61.52
2022-10-29T14:43:13.849Z,61.29
2022-10-29T14:45:41.032Z,61.35
2022-10-29T14:48:09.409Z,61.14
2022-10-29T14:50:36.971Z,61.28
2022-10-29T14:53:04.085Z,61.10
2022-10-29T14:55:31.179Z,61.21
2022-10-29T14:57:58.266Z,61.21
2022-10-29T15:00:25.388Z,61.35
2022-10-29T15:02:52.578Z,61.04
2022-10-29T15:05:19.724Z,61.55
2022-10-29T15:07:46.829Z,61.71
2022-10-29T15:10:13.906Z,61.80
2022-10-29T15:12:40.990Z,61.40
2022-10-29T15:15:08.082Z,61.41
2022-10-29T15:17:35.230Z,61.66
2022-10-29T15:20:02.347Z,61.44
2022-10-29T15:22:29.503Z,61.70
2022-10-29T15:24:56.565Z,61.32
2022-10-29T15:27:24.409Z,61.20
2022-10-29T15:29:51.513Z,61.51
2022-10-29T15:32:18.633Z,61.24
2022-10-29T15:34:45.749Z,61.27
2022-10-29T15:37:12.802Z,61.21
2022-10-29T15:39:39.897Z,61.34
2022-10-29T15:42:06.977Z,61.18
2022-10-29T15:44:34.061Z,61.28
2022-10-29T15:47:01.165Z,61.08
2022-10-29T15:49:31.457Z,61.23
2022-10-29T15:52:00.891Z,61.22
2022-10-29T15:54:27.993Z,61.30
2022-10-29T15:56:55.058Z,61.20
2022-10-29T15:59:22.163Z,61.22
2022-10-29T16:01:49.331Z,61.08
2022-10-29T16:04:16.503Z,61.23
2022-10-29T16:06:43.576Z,61.38
2022-10-29T16:09:11.091Z,61.11
2022-10-29T16:11:38.196Z,60.98
2022-10-29T16:14:05.279Z,61.24
2022-10-29T16:16:32.349Z,61.19
2022-10-29T16:18:59.442Z,61.33
2022-10-29T16:21:26.514Z,61.29
2022-10-29T16:23:53.690Z,61.26
2022-10-29T16:26:20.756Z,61.04
2022-10-29T16:28:47.952Z,60.94
2022-10-29T16:31:15.074Z,60.95
2022-10-29T16:33:42.142Z,61.56
2022-10-29T16:36:09.230Z,61.02
2022-10-29T16:38:36.337Z,61.19
2022-10-29T16:41:03.412Z,60.99
2022-10-29T16:43:30.477Z,61.33
2022-10-29T16:45:59.715Z,61.09
2022-10-29T16:48:29.697Z,61.08
2022-10-29T16:50:56.761Z,60.93
2022-10-29T16:53:23.837Z,61.17
2022-10-29T16:55:50.898Z,60.77
2022-10-29T16:58:18.016Z,60.99
2022-10-29T17:00:45.098Z,61.10
2022-10-29T17:03:12.659Z,61.08
2022-10-29T17:05:39.950Z,60.92
2022-10-29T17:08:07.029Z,60.96
2022-10-29T17:10:34.115Z,60.83
2022-10-29T17:13:01.278Z,61.15
2022-10-29T17:15:28.368Z,60.83
2022-10-29T17:17:55.712Z,60.91
2022-10-29T17:20:23.033Z,60.85
2022-10-29T17:22:50.096Z,60.85
2022-10-29T17:25:17.149Z,61.08
2022-10-29T17:27:44.284Z,60.95
2022-10-29T17:30:11.376Z,61.08
2022-10-29T17:32:38.451Z,60.84
2022-10-29T17:35:05.564Z,60.90
2022-10-29T17:37:32.640Z,60.80
2022-10-29T17:40:03.150Z,60.95
2022-10-29T17:42:34.123Z,61.02
2022-10-29T17:45:01.232Z,60.92
2022-10-29T17:47:28.499Z,60.76
2022-10-29T17:49:55.659Z,60.94
2022-10-29T17:52:22.808Z,61.04
2022-10-29T17:54:49.920Z,60.83
2022-10-29T17:57:16.968Z,60.80
2022-10-29T17:59:44.099Z,60.83
2022-10-29T18:02:11.436Z,61.03
2022-10-29T18:04:38.749Z,61.12
2022-10-29T18:07:05.932Z,60.54
2022-10-29T18:09:33.005Z,60.71
2022-10-29T18:12:00.081Z,61.56
2022-10-29T18:14:27.178Z,60.72
2022-10-29T18:16:54.315Z,60.94
2022-10-29T18:19:21.434Z,60.94
2022-10-29T18:21:48.533Z,61.27
2022-10-29T18:24:15.749Z,60.88
2022-10-29T18:26:42.867Z,60.89
2022-10-29T18:29:10.045Z,61.15
2022-10-29T18:31:37.612Z,60.88
2022-10-29T18:34:06.072Z,61.04
2022-10-29T18:36:35.515Z,61.21
2022-10-29T18:39:04.020Z,60.57
2022-10-29T18:41:31.162Z,60.82
2022-10-29T18:43:58.312Z,60.86
2022-10-29T18:46:25.380Z,60.77
2022-10-29T18:48:52.582Z,60.85
2022-10-29T18:51:19.769Z,60.71
2022-10-29T18:53:46.824Z,61.23
2022-10-29T18:56:13.885Z,60.92
2022-10-29T18:58:40.960Z,61.08
2022-10-29T19:01:08.101Z,61.05
2022-10-29T19:03:35.237Z,61.14
2022-10-29T19:06:02.693Z,60.52
2022-10-29T19:08:29.810Z,61.13
2022-10-29T19:10:56.987Z,61.09
2022-10-29T19:13:24.132Z,60.52
2022-10-29T19:15:51.232Z,60.41
2022-10-29T19:18:18.300Z,60.77
2022-10-29T19:20:45.366Z,60.69
2022-10-29T19:23:13.808Z,60.37
2022-10-29T19:25:41.330Z,60.69
2022-10-29T19:28:08.443Z,60.46
2022-10-29T19:30:35.577Z,61.12
2022-10-29T19:33:07.739Z,60.55
2022-10-29T19:35:35.340Z,60.70
2022-10-29T19:38:02.402Z,60.92
2022-10-29T19:40:30.224Z,60.92
2022-10-29T19:42:57.292Z,61.35
2022-10-29T19:45:24.368Z,61.06
2022-10-29T19:47:51.482Z,61.29
2022-10-29T19:50:18.707Z,61.43
2022-10-29T19:52:45.824Z,61.46
2022-10-29T19:55:14.559Z,61.28
2022-10-29T19:57:41.676Z,61.44
2022-10-29T20:00:13.348Z,61.37
2022-10-29T20:02:42.190Z,61.25
2022-10-29T20:05:09.262Z,61.33
2022-10-29T20:07:36.332Z,61.53
2022-10-29T20:10:03.401Z,61.75
2022-10-29T20:12:30.550Z,61.53
2022-10-29T20:14:57.756Z,61.63
2022-10-29T20:17:24.832Z,61.78
2022-10-29T20:19:51.910Z,61.46
2022-10-29T20:22:19.023Z,61.85
2022-10-29T20:24:46.950Z,61.67
2022-10-29T20:27:14.024Z,61.42
2022-10-29T20:29:41.080Z,61.59
2022-10-29T20:32:08.148Z,61.87
2022-10-29T20:34:35.275Z,61.64
2022-10-29T20:37:02.348Z,61.59
2022-10-29T20:39:32.448Z,61.87
2022-10-29T20:42:00.680Z,61.77
2022-10-29T20:44:27.757Z,61.97
2022-10-29T20:46:54.821Z,61.67
2022-10-29T20:49:21.896Z,61.93
2022-10-29T20:51:49.015Z,61.92
2022-10-29T20:54:16.080Z,61.78
2022-10-29T20:56:43.212Z,61.78
2022-10-29T20:59:10.359Z,62.12
2022-10-29T21:01:37.543Z,61.68
2022-10-29T21:04:04.905Z,61.87
2022-10-29T21:06:35.823Z,61.98
2022-10-29T21:09:03.052Z,61.87
2022-10-29T21:11:30.139Z,62.05
2022-10-29T21:13:57.256Z,61.84
2022-10-29T21:16:24.322Z,61.87
2022-10-29T21:18:51.438Z,62.20
2022-10-29T21:21:18.559Z,62.15
2022-10-29T21:23:45.637Z,61.88
2022-10-29T21:26:12.727Z,62.05
2022-10-29T21:28:39.795Z,62.11
2022-10-29T21:31:06.933Z,62.12
2022-10-29T21:33:34.041Z,61.96
2022-10-29T21:36:01.141Z,61.88
2022-10-29T21:38:28.289Z,62.20
2022-10-29T21:40:55.433Z,62.08
2022-10-29T21:43:22.533Z,61.98
2022-10-29T21:45:49.604Z,62.21
2022-10-29T21:48:16.661Z,62.34
2022-10-29T21:50:43.731Z,62.30
2022-10-29T21:53:10.841Z,62.04
2022-10-29T21:55:37.958Z,62.38
2022-10-29T21:58:05.027Z,62.46
2022-10-29T22:00:32.092Z,62.15
2022-10-29T22:03:04.181Z,62.22
2022-10-29T22:05:31.911Z,62.42
2022-10-29T22:07:59.637Z,62.27
2022-10-29T22:10:26.927Z,62.01
2022-10-29T22:12:54.132Z,62.45
2022-10-29T22:15:21.377Z,62.13
2022-10-29T22:17:48.463Z,62.30
2022-10-29T22:20:15.516Z,62.49
2022-10-29T22:22:43.727Z,62.40
2022-10-29T22:25:10.837Z,62.37
2022-10-29T22:27:37.981Z,62.52
2022-10-29T22:30:05.058Z,62.38
2022-10-29T22:32:32.153Z,62.27
2022-10-29T22:34:59.231Z,62.42
2022-10-29T22:37:26.334Z,62.20
2022-10-29T22:39:53.421Z,62.47
2022-10-29T22:42:20.473Z,62.62
2022-10-29T22:44:47.537Z,62.26
2022-10-29T22:47:14.659Z,62.56
2022-10-29T22:49:41.788Z,62.38
2022-10-29T22:52:08.904Z,62.28
2022-10-29T22:54:35.986Z,62.48
2022-10-29T22:57:03.157Z,62.49
2022-10-29T22:59:30.222Z,62.45
2022-10-29T23:01:57.374Z,62.36
2022-10-29T23:04:25.815Z,62.58
2022-10-29T23:06:53.577Z,62.32
2022-10-29T23:09:21.939Z,62.41
2022-10-29T23:11:49.006Z,62.53
2022-10-29T23:14:16.081Z,62.46
2022-10-29T23:16:43.194Z,62.61
2022-10-29T23:19:10.284Z,62.57
2022-10-29T23:21:37.415Z,62.56
2022-10-29T23:24:04.493Z,62.46
2022-10-29T23:26:31.566Z,62.57
2022-10-29T23:28:58.629Z,62.33
2022-10-29T23:31:25.718Z,62.64
2022-10-29T23:33:53.027Z,62.34
2022-10-29T23:36:20.430Z,62.59
2022-10-29T23:38:47.494Z,62.48
2022-10-29T23:41:14.606Z,62.70
2022-10-29T23:43:41.703Z,62.40
2022-10-29T23:46:08.842Z,62.56
2022-10-29T23:48:35.956Z,62.65
2022-10-29T23:51:03.071Z,62.43
2022-10-29T23:53:30.212Z,62.68
2022-10-29T23:55:57.274Z,62.70
2022-10-29T23:58:24.457Z,62.49
